Academy, South Dakota
Current Conditions -  °F | °C
As of 8:35 AM on Tuesday 27 Jan 2015 (Local Time) from K9V9 Reporting Station
Clear Clear  
Wind Chill: -5°   Ceiling: Unl
Heat Index:   Visibility: 10mi
Dew Point: -1°   Wind: 12mph
Humidity: 91%   Direction: 130°SE
Pressure: 29.98"   Gusts: NA
Location:  43.4255°N, 98.9806°W
Report Text: K9V9 271435Z AUTO 13010KT 10SM CLR 00/M01 A2998 RMK AO2 T00031010
Loading
Personal Weather Stations






























Interactive Weather Map New forecast layout! Learn more

10-Day Weather Forecast

Advertisements
Track Severe Weather on mobile